Time;durP1;ratioP1;P1;durP2;ratioP2;P2;SDS_P1;SDS_P2;PMS_P1;PMS_P2;Temp;Humidity;BMP_temperature;BMP_pressure;BME280_temperature;BME280_humidity;BME280_pressure;Samples;Min_cycle;Max_cycle;Signal;HPM_P1;HPM_P2
2023/12/19 00:02:57;;;;;;;;;27.50;23.00;;;;;4.94;71.75;102359.81;146628;633;45011;-69
2023/12/19 00:05:53;;;;;;;;;30.75;28.00;;;;;4.92;72.94;102366.44;146624;569;46012;-66
2023/12/19 00:09:07;;;;;;;;;48.50;38.00;;;;;4.94;73.61;102371.00;146629;702;45914;-67
2023/12/19 00:12:08;;;;;;;;;33.75;28.00;;;;;4.95;74.28;102367.66;146625;587;45917;-68
2023/12/19 00:15:12;;;;;;;;;32.75;26.00;;;;;4.94;72.99;102365.84;146628;605;45010;-66
2023/12/19 00:18:36;;;;;;;;;31.25;27.75;;;;;4.87;73.65;102366.91;146626;644;45916;-67
2023/12/19 00:21:39;;;;;;;;;44.25;34.00;;;;;4.80;74.39;102366.16;146628;564;45010;-69
2023/12/19 00:24:48;;;;;;;;;30.25;26.25;;;;;4.77;74.14;102365.84;146627;569;45012;-67
2023/12/19 00:27:59;;;;;;;;;28.50;24.50;;;;;0.34;73.06;101581.16;146619;610;46020;-68
2023/12/19 00:31:03;;;;;;;;;25.25;21.00;;;;;4.72;74.05;102367.94;146606;648;46014;-70
2023/12/19 00:34:06;;;;;;;;;24.50;22.25;;;;;4.66;74.34;102363.84;146607;563;46012;-69
2023/12/19 00:37:12;;;;;;;;;31.75;28.00;;;;;4.58;74.13;102370.78;146607;629;46012;-67
2023/12/19 00:40:57;;;;;;;;;28.25;22.50;;;;;4.51;75.03;102358.97;146607;588;46023;-67
2023/12/19 00:43:55;;;;;;;;;27.25;23.00;;;;;4.45;75.77;102360.91;146605;617;46012;-68
2023/12/19 00:47:11;;;;;;;;;33.75;28.00;;;;;4.42;75.04;102365.72;146610;605;45021;-67
2023/12/19 00:50:18;;;;;;;;;31.00;25.50;;;;;4.43;74.75;102367.56;146606;634;46016;-67
2023/12/19 00:53:17;;;;;;;;;37.50;34.00;;;;;4.47;74.96;102374.81;146600;604;47010;-68
2023/12/19 00:56:21;;;;;;;;;43.00;34.75;;;;;4.45;74.77;102360.00;146606;577;46012;-66
2023/12/19 00:59:28;;;;;;;;;39.25;33.25;;;;;4.58;74.68;102371.69;146607;682;46020;-65
2023/12/19 01:02:36;;;;;;;;;36.75;30.75;;;;;4.62;73.57;102355.81;146607;586;45019;-67
2023/12/19 01:05:43;;;;;;;;;34.00;28.00;;;;;4.67;74.29;102370.78;146606;573;46020;-66
2023/12/19 01:08:38;;;;;;;;;26.50;22.50;;;;;4.66;75.49;102366.41;146602;591;46017;-68
2023/12/19 01:11:32;;;;;;;;;25.75;23.00;;;;;4.65;74.09;102370.66;146607;563;46020;-66
2023/12/19 01:14:30;;;;;;;;;22.75;20.75;;;;;4.63;74.37;102360.19;146607;624;46016;-67
2023/12/19 01:17:33;;;;;;;;;23.25;22.50;;;;;4.57;74.55;102357.00;146611;610;46010;-66
2023/12/19 01:20:40;;;;;;;;;19.25;18.50;;;;;4.48;74.04;102353.50;146603;617;46016;-66
2023/12/19 01:23:47;;;;;;;;;19.50;16.00;;;;;4.36;74.01;102336.84;146609;593;46010;-65
2023/12/19 01:26:54;;;;;;;;;21.75;19.25;;;;;4.44;74.18;102346.25;146607;628;46012;-65
2023/12/19 01:30:04;;;;;;;;;30.75;29.50;;;;;4.36;73.26;102342.91;146630;679;45010;-66
2023/12/19 01:33:04;;;;;;;;;29.50;23.50;;;;;4.27;73.88;102343.62;146627;582;46012;-65
2023/12/19 01:36:12;;;;;;;;;30.25;25.75;;;;;4.17;74.18;102339.19;146626;579;46020;-64
2023/12/19 01:39:17;;;;;;;;;34.25;30.50;;;;;4.18;74.74;102342.72;146626;598;45014;-64
2023/12/19 01:42:25;;;;;;;;;30.75;27.25;;;;;4.20;74.51;102341.19;146628;599;45010;-65
2023/12/19 01:45:32;;;;;;;;;33.00;27.75;;;;;4.22;74.65;102335.47;146625;701;45016;-64
2023/12/19 01:48:35;;;;;;;;;37.25;33.00;;;;;4.21;74.62;102327.63;146627;578;45020;-65
2023/12/19 01:51:48;;;;;;;;;30.25;28.25;;;;;4.19;74.62;102331.69;146623;620;46012;-67
2023/12/19 01:54:52;;;;;;;;;30.50;24.50;;;;;4.15;75.53;102328.78;146628;578;45020;-66
2023/12/19 01:58:07;;;;;;;;;27.00;23.25;;;;;4.10;75.42;102318.78;146625;591;45014;-66
2023/12/19 02:01:13;;;;;;;;;;;;;;;;;;;;;
2023/12/19 02:04:16;;;;;;;;;31.75;29.25;;;;;4.13;75.11;102326.81;146625;587;45016;-65
2023/12/19 02:07:28;;;;;;;;;;;;;;;;;;;;;
2023/12/19 02:10:27;;;;;;;;;32.75;28.00;;;;;4.13;75.24;102313.97;146627;618;45012;-64
2023/12/19 02:13:19;;;;;;;;;41.50;34.50;;;;;4.11;75.49;102308.69;146626;673;46020;-64
2023/12/19 02:16:24;;;;;;;;;32.50;24.25;;;;;4.10;75.56;102314.56;146625;565;45016;-65
2023/12/19 02:19:31;;;;;;;;;36.25;29.00;;;;;4.12;76.35;102304.47;146628;590;45010;-66
2023/12/19 02:22:29;;;;;;;;;38.00;31.00;;;;;4.21;75.88;102307.97;146626;631;45016;-66
2023/12/19 02:25:28;;;;;;;;;27.75;26.50;;;;;4.31;75.94;102299.53;146626;599;45012;-67
2023/12/19 02:28:27;;;;;;;;;29.75;25.75;;;;;4.38;75.26;102289.12;146611;702;46012;-66
2023/12/19 02:31:20;;;;;;;;;30.75;25.25;;;;;4.42;75.62;102288.66;146609;678;46021;-66
2023/12/19 02:34:23;;;;;;;;;24.00;21.75;;;;;4.42;74.93;102282.62;146604;572;46922;-66
2023/12/19 02:37:31;;;;;;;;;29.50;24.25;;;;;4.39;75.62;102283.22;146607;565;46021;-66
2023/12/19 02:40:35;;;;;;;;;26.50;21.75;;;;;-0.21;75.33;101478.47;146605;611;46012;-68
2023/12/19 02:43:53;;;;;;;;;;;;;;;;;;;;;
2023/12/19 02:46:59;;;;;;;;;17.50;16.25;;;;;4.27;75.46;102271.72;146603;607;46019;-66
2023/12/19 02:49:57;;;;;;;;;16.00;13.00;;;;;4.25;75.82;102270.69;146606;595;46020;-68
2023/12/19 02:52:56;;;;;;;;;15.00;13.50;;;;;4.23;76.04;102272.16;146607;657;45017;-66
2023/12/19 02:55:49;;;;;;;;;16.50;14.75;;;;;4.17;75.59;102269.88;146608;617;46020;-65
2023/12/19 02:58:45;;;;;;;;;17.00;14.00;;;;;4.13;76.05;102262.62;146606;645;46012;-64
2023/12/19 03:01:55;;;;;;;;;15.00;15.00;;;;;4.07;76.15;102255.22;146608;626;46012;-67
2023/12/19 03:05:17;;;;;;;;;22.00;19.00;;;;;4.04;75.53;102260.03;146606;610;46012;-66
2023/12/19 03:08:16;;;;;;;;;21.75;17.75;;;;;4.02;75.51;102266.69;146607;584;46011;-67
2023/12/19 03:11:28;;;;;;;;;17.50;16.75;;;;;4.09;75.20;102270.78;146601;569;47918;-65
2023/12/19 03:14:32;;;;;;;;;29.50;20.75;;;;;4.15;75.48;102261.13;146605;600;46021;-64
2023/12/19 03:17:38;;;;;;;;;16.50;14.25;;;;;4.23;75.60;102267.03;146606;588;46012;-66
2023/12/19 03:20:33;;;;;;;;;20.75;16.50;;;;;4.20;75.63;102272.75;146607;573;46020;-67
2023/12/19 03:23:44;;;;;;;;;17.50;14.25;;;;;4.13;74.95;102278.03;146602;584;47012;-66
2023/12/19 03:27:12;;;;;;;;;26.00;20.50;;;;;-0.84;74.55;101407.19;146607;560;46020;-66
2023/12/19 03:30:24;;;;;;;;;22.25;17.00;;;;;-1.01;74.43;101398.66;146626;606;46013;-66
2023/12/19 03:33:28;;;;;;;;;22.00;19.75;;;;;3.97;74.95;102287.50;146627;572;45020;-66
2023/12/19 03:36:28;;;;;;;;;26.75;23.75;;;;;3.98;75.58;102285.06;146627;603;46012;-66
2023/12/19 03:39:37;;;;;;;;;31.00;26.00;;;;;4.04;76.24;102272.88;146628;574;45010;-66
2023/12/19 03:42:38;;;;;;;;;25.00;21.50;;;;;4.12;76.64;102277.13;146612;564;45916;-67
2023/12/19 03:45:53;;;;;;;;;15.25;14.00;;;;;4.12;76.13;102278.81;146621;614;46916;-67
2023/12/19 03:48:59;;;;;;;;;15.75;13.00;;;;;4.09;75.57;102281.06;146627;569;46010;-66
2023/12/19 03:52:01;;;;;;;;;15.00;12.75;;;;;4.04;75.68;102283.12;146628;677;45916;-66
2023/12/19 03:54:59;;;;;;;;;17.00;14.25;;;;;4.02;76.39;102278.59;146625;571;45016;-66
2023/12/19 03:58:05;;;;;;;;;18.00;14.00;;;;;3.99;75.94;102278.28;146626;595;45020;-65
2023/12/19 04:01:00;;;;;;;;;13.50;12.00;;;;;3.96;76.53;102271.19;146624;650;45017;-66
2023/12/19 04:04:22;;;;;;;;;21.50;19.00;;;;;3.90;76.40;102263.78;146626;580;46012;-65
2023/12/19 04:07:24;;;;;;;;;22.00;16.50;;;;;3.84;76.06;102268.28;146627;630;45013;-66
2023/12/19 04:10:58;;;;;;;;;14.50;13.50;;;;;3.78;76.47;102266.75;146628;650;45010;-66
2023/12/19 04:13:59;;;;;;;;;16.50;14.00;;;;;3.75;76.41;102259.63;146627;566;45017;-67
2023/12/19 04:17:09;;;;;;;;;15.75;14.50;;;;;-1.48;75.45;101335.91;146627;573;46010;-68
2023/12/19 04:20:03;;;;;;;;;20.00;15.50;;;;;3.74;77.15;102257.84;146623;591;46018;-69
2023/12/19 04:23:14;;;;;;;;;19.75;16.50;;;;;3.76;76.21;102240.91;146624;575;47020;-68
2023/12/19 04:26:08;;;;;;;;;25.25;17.25;;;;;3.79;76.82;102243.78;146622;595;45016;-67
2023/12/19 04:29:14;;;;;;;;;20.50;14.50;;;;;3.78;77.31;102241.09;146608;594;46021;-66
2023/12/19 04:32:31;;;;;;;;;26.75;22.75;;;;;3.74;77.70;102242.44;146604;629;46016;-66
2023/12/19 04:35:38;;;;;;;;;32.50;28.25;;;;;3.72;77.41;102246.50;146609;564;45030;-66
2023/12/19 04:38:31;;;;;;;;;29.00;25.25;;;;;3.73;77.12;102245.72;146605;644;46014;-65
2023/12/19 04:41:25;;;;;;;;;21.00;18.50;;;;;3.75;77.25;102254.50;146607;586;46010;-66
2023/12/19 04:44:21;;;;;;;;;18.75;17.75;;;;;3.75;77.06;102246.81;146605;591;46016;-66
2023/12/19 04:47:35;;;;;;;;;22.75;19.00;;;;;3.76;77.41;102252.84;146607;610;46020;-67
2023/12/19 04:51:04;;;;;;;;;27.00;22.00;;;;;3.76;77.44;102256.31;146600;629;46016;-66
2023/12/19 04:54:09;;;;;;;;;30.00;23.50;;;;;3.76;76.78;102255.41;146608;611;46012;-65
2023/12/19 04:57:02;;;;;;;;;22.75;21.25;;;;;3.82;77.82;102249.25;146607;605;45016;-67
2023/12/19 04:59:56;;;;;;;;;21.75;18.75;;;;;3.87;77.82;102247.16;146606;625;46021;-68
2023/12/19 05:03:07;;;;;;;;;17.50;15.25;;;;;3.88;77.07;102246.41;146606;658;46014;-67
2023/12/19 05:06:05;;;;;;;;;15.00;13.00;;;;;3.86;77.44;102247.88;146608;687;46011;-66
2023/12/19 05:09:14;;;;;;;;;13.50;13.00;;;;;-1.38;75.57;101325.09;146605;603;45580;-67
2023/12/19 05:12:26;;;;;;;;;12.50;12.50;;;;;-1.24;76.46;101352.94;146609;591;46010;-69
2023/12/19 05:15:32;;;;;;;;;22.25;15.00;;;;;3.85;78.08;102254.69;146606;596;46014;-68
2023/12/19 05:18:43;;;;;;;;;17.50;16.00;;;;;-0.93;76.35;101412.22;146607;666;46010;-67
2023/12/19 05:21:55;;;;;;;;;18.00;16.25;;;;;3.84;76.76;102250.31;146603;632;46014;-66
2023/12/19 05:25:14;;;;;;;;;19.50;19.00;;;;;3.87;77.09;102250.63;146608;645;46020;-67
2023/12/19 05:28:21;;;;;;;;;21.50;18.00;;;;;3.88;77.16;102251.53;146604;569;46916;-68
2023/12/19 05:31:31;;;;;;;;;25.00;17.75;;;;;3.92;77.25;102259.72;146607;580;46010;-66
2023/12/19 05:34:35;;;;;;;;;25.75;20.25;;;;;3.96;77.37;102263.50;146605;634;46016;-67
2023/12/19 05:37:53;;;;;;;;;;;;;;;;;;;;;
2023/12/19 05:40:57;;;;;;;;;25.25;23.25;;;;;3.99;78.11;102262.88;146605;598;46012;-66
2023/12/19 05:43:59;;;;;;;;;27.00;24.25;;;;;4.01;77.82;102271.66;146607;583;45021;-66
2023/12/19 05:46:57;;;;;;;;;29.00;22.25;;;;;4.03;78.24;102273.63;146606;593;46016;-69
2023/12/19 05:49:59;;;;;;;;;34.00;26.50;;;;;4.10;77.98;102273.50;146607;563;46020;-68
2023/12/19 05:53:09;;;;;;;;;26.00;24.00;;;;;4.14;78.02;102269.56;146605;606;46916;-66
2023/12/19 05:56:15;;;;;;;;;48.50;40.00;;;;;4.19;78.23;102281.22;146607;575;46020;-67
2023/12/19 05:59:15;;;;;;;;;37.00;31.50;;;;;4.27;77.36;102274.28;146602;593;46916;-67
2023/12/19 06:02:16;;;;;;;;;23.50;21.75;;;;;4.32;77.90;102275.66;146606;611;47010;-67
2023/12/19 06:05:24;;;;;;;;;32.25;31.25;;;;;4.35;77.45;102274.31;146606;706;46017;-68
2023/12/19 06:08:21;;;;;;;;;21.00;17.25;;;;;4.38;77.37;102271.16;146606;595;47012;-68
2023/12/19 06:11:20;;;;;;;;;29.25;26.50;;;;;4.43;76.97;102263.94;146605;616;46016;-65
2023/12/19 06:14:28;;;;;;;;;28.75;22.00;;;;;4.51;76.62;102270.72;146607;590;46010;-69
2023/12/19 06:17:22;;;;;;;;;17.75;15.50;;;;;4.54;76.82;102255.59;146604;590;46016;-68
2023/12/19 06:20:34;;;;;;;;;18.75;16.75;;;;;4.55;76.50;102260.00;146606;616;46020;-68
2023/12/19 06:23:33;;;;;;;;;17.25;17.25;;;;;4.58;77.39;102262.88;146605;630;46016;-68
2023/12/19 06:26:40;;;;;;;;;20.50;17.75;;;;;4.55;77.17;102242.03;146607;612;46010;-68
2023/12/19 06:29:35;;;;;;;;;32.00;30.50;;;;;4.63;77.47;102252.28;146621;572;46014;-67
2023/12/19 06:32:34;;;;;;;;;36.00;31.25;;;;;4.68;76.67;102250.19;146627;603;45020;-69
2023/12/19 06:35:33;;;;;;;;;25.50;23.00;;;;;4.78;76.68;102245.19;146624;614;45916;-69
2023/12/19 06:38:34;;;;;;;;;26.00;23.75;;;;;-0.07;76.31;101360.09;146619;599;46012;-69
2023/12/19 06:41:28;;;;;;;;;34.25;30.75;;;;;5.03;77.44;102240.78;146624;612;45016;-69
2023/12/19 06:44:36;;;;;;;;;38.75;33.50;;;;;5.29;77.38;102239.84;146626;616;45021;-69
2023/12/19 06:47:37;;;;;;;;;43.25;31.50;;;;;5.76;79.51;102240.88;146623;627;45012;-67
2023/12/19 06:50:45;;;;;;;;;43.00;37.00;;;;;6.41;80.37;102233.28;146622;643;46020;-68
2023/12/19 06:53:40;;;;;;;;;56.50;46.00;;;;;7.31;81.60;102247.37;146625;660;45012;-67
2023/12/19 06:57:01;;;;;;;;;68.00;50.25;;;;;8.48;78.52;102248.03;146626;658;46012;-68
2023/12/19 07:00:21;;;;;;;;;62.00;47.00;;;;;9.56;74.43;102245.66;146625;592;45024;-66
2023/12/19 07:03:21;;;;;;;;;63.50;49.00;;;;;10.49;66.89;102251.13;146629;563;45020;-66
2023/12/19 07:06:42;;;;;;;;;65.00;49.50;;;;;11.12;63.70;102250.63;146630;622;45013;-67
2023/12/19 07:09:34;;;;;;;;;61.75;48.25;;;;;11.68;60.47;102251.22;146628;598;45010;-65
2023/12/19 07:12:43;;;;;;;;;68.50;53.00;;;;;11.98;56.76;102249.94;146624;605;46918;-67
2023/12/19 07:15:43;;;;;;;;;67.50;53.00;;;;;12.09;56.45;102236.00;146629;618;45028;-66
2023/12/19 07:18:56;;;;;;;;;70.50;54.00;;;;;12.35;55.90;102253.37;146623;574;45016;-67
2023/12/19 07:22:02;;;;;;;;;62.50;49.25;;;;;12.62;58.45;102254.34;146625;609;45014;-66
2023/12/19 07:57:25;;;;;;;;;60.00;46.25;;;;;8.64;52.63;101524.56;146627;699;45016;-68
2023/12/19 08:00:47;;;;;;;;;53.25;43.25;;;;;10.38;55.04;101898.59;146629;563;45010;-68
2023/12/19 08:04:07;;;;;;;;;56.25;46.00;;;;;12.28;55.03;102263.25;146624;563;46914;-69
2023/12/19 08:07:28;;;;;;;;;53.00;41.00;;;;;12.23;55.92;102252.53;146622;718;47916;-68
2023/12/19 08:10:25;;;;;;;;;51.75;40.25;;;;;12.25;55.89;102248.34;146626;608;46010;-67
2023/12/19 08:13:27;;;;;;;;;50.50;40.50;;;;;12.24;54.61;102249.12;146626;573;45023;-68
2023/12/19 08:16:25;;;;;;;;;53.75;42.75;;;;;12.23;55.52;102255.12;146624;574;46921;-68
2023/12/19 08:19:31;;;;;;;;;44.00;36.75;;;;;12.26;56.72;102250.13;146626;592;46010;-68
2023/12/19 08:22:39;;;;;;;;;;;;;;;;;;;;;
2023/12/19 08:25:38;;;;;;;;;52.00;41.50;;;;;12.57;56.96;102237.50;146628;600;45020;-67
2023/12/19 08:28:36;;;;;;;;;57.75;47.25;;;;;12.68;55.50;102223.53;146611;563;46918;-69
2023/12/19 08:31:49;;;;;;;;;55.50;44.25;;;;;12.85;56.08;102228.94;146608;591;46020;-69
2023/12/19 08:34:45;;;;;;;;;57.50;44.50;;;;;12.99;54.88;102233.37;146605;588;46017;-69
2023/12/19 08:38:03;;;;;;;;;54.75;43.25;;;;;13.12;56.85;102225.53;146608;599;46010;-68
2023/12/19 08:41:02;;;;;;;;;53.50;41.00;;;;;13.30;55.39;102218.06;146603;590;46017;-69
2023/12/19 08:44:10;;;;;;;;;52.50;42.00;;;;;13.47;55.27;102223.44;146608;588;46020;-68
2023/12/19 08:47:11;;;;;;;;;55.25;43.50;;;;;13.54;54.08;102220.41;146604;588;46016;-67
2023/12/19 08:50:10;;;;;;;;;62.00;47.75;;;;;13.50;53.62;102214.09;146607;590;46011;-68
2023/12/19 08:53:03;;;;;;;;;59.25;46.50;;;;;13.44;54.50;102207.59;146605;575;46012;-69
2023/12/19 08:56:12;;;;;;;;;53.25;41.50;;;;;13.38;56.49;102200.28;146609;569;47010;-68
2023/12/19 08:59:31;;;;;;;;;55.75;42.75;;;;;13.44;55.45;102198.06;146604;622;47012;-68
2023/12/19 09:02:30;;;;;;;;;53.00;42.75;;;;;13.46;55.40;102196.47;146605;622;46020;-67
2023/12/19 09:05:30;;;;;;;;;51.75;42.00;;;;;13.48;55.62;102199.16;146604;596;47012;-68
2023/12/19 09:08:30;;;;;;;;;51.75;41.50;;;;;13.53;55.94;102193.44;146606;664;46010;-69
2023/12/19 09:11:30;;;;;;;;;52.00;41.00;;;;;13.63;55.35;102184.47;146606;617;46012;-69
2023/12/19 09:14:31;;;;;;;;;45.25;38.00;;;;;13.76;56.01;102187.03;146602;563;46020;-69
2023/12/19 09:17:22;;;;;;;;;47.00;37.25;;;;;13.94;56.72;102175.94;146601;590;47016;-68
2023/12/19 09:20:26;;;;;;;;;48.00;39.00;;;;;14.15;55.00;102172.03;146603;566;46020;-67
2023/12/19 09:23:24;;;;;;;;;51.00;41.25;;;;;14.27;56.44;102171.84;146607;676;46014;-69
2023/12/19 09:26:28;;;;;;;;;41.25;34.00;;;;;14.29;54.68;102162.37;146609;591;46011;-68
2023/12/19 09:29:36;;;;;;;;;40.50;33.50;;;;;10.29;56.10;101456.38;146624;571;45016;-69
2023/12/19 09:33:12;;;;;;;;;;;;;;;;;;;;;
2023/12/19 09:36:33;;;;;;;;;35.50;30.75;;;;;14.38;55.42;102143.78;146625;586;46012;-68
2023/12/19 09:39:34;;;;;;;;;41.75;35.00;;;;;14.50;53.86;102139.28;146626;610;45028;-69
2023/12/19 09:42:59;;;;;;;;;36.00;31.00;;;;;14.60;54.25;102133.78;146627;610;45014;-68
2023/12/19 09:46:03;;;;;;;;;;;;;;;;;;;;;
2023/12/19 09:49:15;;;;;;;;;;;;;;;;;;;;;
2023/12/19 09:52:34;;;;;;;;;31.25;28.50;;;;;14.83;54.77;102119.44;146626;603;45020;-68
2023/12/19 09:55:43;;;;;;;;;36.25;30.50;;;;;14.88;53.21;102120.59;146628;565;45012;-68
2023/12/19 09:58:41;;;;;;;;;40.00;32.75;;;;;14.88;51.98;102117.06;146627;618;45020;-68
2023/12/19 10:01:50;;;;;;;;;32.00;29.00;;;;;14.89;54.19;102117.19;146625;584;45016;-68
2023/12/19 10:05:01;;;;;;;;;37.25;31.25;;;;;14.94;53.35;102106.97;146627;581;46010;-69
2023/12/19 10:08:11;;;;;;;;;34.00;29.00;;;;;15.07;54.06;102098.09;146628;639;45012;-69
2023/12/19 10:11:09;;;;;;;;;31.50;28.00;;;;;15.11;52.75;102090.53;146627;589;45914;-69
2023/12/19 10:14:17;;;;;;;;;39.00;32.25;;;;;15.18;53.84;102089.16;146624;575;46010;-67
2023/12/19 10:17:32;;;;;;;;;36.50;31.50;;;;;11.18;53.91;101366.75;146625;631;44914;-66
2023/12/19 10:20:37;;;;;;;;;38.50;30.75;;;;;15.28;51.88;102077.47;146623;576;46918;-68
2023/12/19 10:23:33;;;;;;;;;38.75;28.75;;;;;15.32;51.12;102071.56;146624;686;45020;-67
2023/12/19 10:26:42;;;;;;;;;36.50;31.00;;;;;11.57;53.97;101399.34;146624;586;45016;-68
2023/12/19 10:29:40;;;;;;;;;34.75;29.00;;;;;15.42;52.97;102061.72;146627;573;45020;-68
2023/12/19 10:32:51;;;;;;;;;;;;;;;;;;;;;
2023/12/19 10:35:56;;;;;;;;;34.25;31.00;;;;;15.50;52.92;102051.66;146624;625;45020;-67
2023/12/19 10:39:02;;;;;;;;;33.25;29.50;;;;;15.57;53.54;102051.13;146621;571;46016;-68
2023/12/19 10:42:21;;;;;;;;;35.00;30.50;;;;;15.69;54.36;102040.47;146625;566;46010;-68
2023/12/19 10:45:23;;;;;;;;;34.50;31.00;;;;;15.84;52.84;102030.78;146625;564;45016;-68
2023/12/19 10:48:19;;;;;;;;;33.75;29.75;;;;;15.97;52.17;102026.16;146624;580;45020;-67
2023/12/19 10:51:14;;;;;;;;;33.25;27.75;;;;;16.01;50.54;102023.78;146625;576;45024;-67
2023/12/19 10:54:19;;;;;;;;;36.00;30.25;;;;;15.98;52.50;102017.47;146626;577;45021;-67
2023/12/19 10:57:31;;;;;;;;;28.00;25.75;;;;;15.97;53.99;102011.38;146630;566;45012;-67
2023/12/19 11:00:41;;;;;;;;;31.50;28.25;;;;;12.33;53.83;101349.00;146629;601;45010;-68
2023/12/19 11:04:18;;;;;;;;;35.25;29.75;;;;;16.17;53.13;101997.56;146623;586;45035;-67
2023/12/19 11:07:16;;;;;;;;;32.00;29.50;;;;;16.30;50.61;101992.91;146625;626;45020;-68
2023/12/19 11:10:38;;;;;;;;;27.25;24.25;;;;;16.35;50.49;101989.69;146626;574;45014;-67
2023/12/19 11:14:22;;;;;;;;;33.25;29.00;;;;;16.41;51.21;101975.97;146625;588;45020;-68
2023/12/19 11:17:55;;;;;;;;;32.00;27.50;;;;;16.48;51.66;101975.47;146623;618;45016;-69
2023/12/19 11:21:29;;;;;;;;;29.25;27.50;;;;;16.53;51.56;101965.19;146628;618;45030;-68
2023/12/19 11:25:01;;;;;;;;;;;;;;;;;;;;;
2023/12/19 11:28:34;;;;;;;;;34.50;29.75;;;;;12.98;51.72;101309.91;146617;628;46020;-67
2023/12/19 11:31:55;;;;;;;;;34.25;29.50;;;;;16.70;49.26;101950.25;146604;571;46017;-66
2023/12/19 11:34:56;;;;;;;;;37.00;30.50;;;;;16.69;47.71;101946.75;146604;569;46021;-66
2023/12/19 11:37:50;;;;;;;;;30.75;29.00;;;;;16.70;48.42;101943.31;146606;608;46012;-67
2023/12/19 11:41:28;;;;;;;;;29.00;22.50;;;;;16.70;51.38;101943.31;146606;586;46010;-68
2023/12/19 11:45:17;;;;;;;;;29.00;26.50;;;;;13.22;51.70;101323.28;146605;565;46012;-68
2023/12/19 11:48:49;;;;;;;;;32.00;28.00;;;;;13.13;50.79;101295.06;146608;581;46013;-67
2023/12/19 11:51:57;;;;;;;;;21.00;20.00;;;;;16.72;48.49;101925.03;146606;659;46012;-67
2023/12/19 11:55:01;;;;;;;;;26.25;22.50;;;;;16.77;48.77;101929.69;146605;564;46020;-67
2023/12/19 11:58:04;;;;;;;;;20.50;17.25;;;;;16.83;48.13;101935.22;146605;621;47014;-67
2023/12/19 12:01:47;;;;;;;;;24.75;22.00;;;;;16.12;48.59;101792.31;146606;617;46021;-67
2023/12/19 12:04:53;;;;;;;;;24.50;22.00;;;;;17.03;47.90;101925.59;146602;591;46029;-69
2023/12/19 12:08:10;;;;;;;;;25.25;23.00;;;;;17.14;47.41;101920.84;146606;589;46021;-69
2023/12/19 12:11:11;;;;;;;;;24.75;22.00;;;;;17.24;46.58;101924.75;146600;593;47014;-68
2023/12/19 12:14:18;;;;;;;;;20.75;17.75;;;;;13.61;48.45;101271.37;146609;616;46012;-67
2023/12/19 12:17:33;;;;;;;;;21.50;16.00;;;;;17.40;47.76;101918.44;146604;578;46017;-68
2023/12/19 12:21:07;;;;;;;;;;;;;;;;;;;;;
2023/12/19 12:24:23;;;;;;;;;18.50;17.00;;;;;14.44;47.87;101354.34;146606;594;46016;-68
2023/12/19 12:27:32;;;;;;;;;26.50;22.50;;;;;17.86;44.66;101908.16;146607;601;46010;-68
2023/12/19 12:30:35;;;;;;;;;19.75;18.00;;;;;18.08;45.82;101904.66;146604;628;46917;-68
2023/12/19 12:33:36;;;;;;;;;19.00;18.50;;;;;18.34;45.56;101900.41;146606;581;46020;-68
2023/12/19 12:37:13;;;;;;;;;;;;;;;;;;;;;
2023/12/19 12:40:26;;;;;;;;;28.75;25.50;;;;;18.89;45.60;101884.09;146607;569;46010;-67
2023/12/19 12:43:55;;;;;;;;;36.50;30.00;;;;;15.94;46.85;101311.09;146603;607;46016;-68
2023/12/19 12:47:09;;;;;;;;;30.25;27.75;;;;;16.24;46.25;101320.97;146606;586;46011;-67
2023/12/19 12:50:28;;;;;;;;;26.50;25.00;;;;;19.65;46.05;101879.69;146602;565;46016;-67
2023/12/19 12:53:33;;;;;;;;;34.00;28.25;;;;;19.84;44.81;101882.09;146607;675;46013;-70
2023/12/19 12:56:54;;;;;;;;;29.25;26.25;;;;;19.90;44.44;101885.75;146606;585;46012;-68
2023/12/19 12:59:46;;;;;;;;;21.50;18.75;;;;;19.87;41.94;101883.91;146605;659;46020;-67
2023/12/19 13:02:52;;;;;;;;;21.50;20.25;;;;;19.83;42.65;101884.66;146604;576;46016;-68
2023/12/19 13:06:14;;;;;;;;;20.50;17.25;;;;;16.23;46.57;101250.25;146605;628;46020;-67
2023/12/19 13:09:39;;;;;;;;;22.75;19.50;;;;;20.00;45.67;101882.56;146606;635;46012;-67
2023/12/19 13:12:48;;;;;;;;;21.75;20.00;;;;;20.16;44.53;101874.31;146607;582;46012;-67
2023/12/19 13:15:59;;;;;;;;;24.25;20.75;;;;;20.34;41.15;101870.41;146603;569;46016;-67
2023/12/19 13:19:02;;;;;;;;;26.25;20.75;;;;;20.35;43.98;101869.59;146609;602;45020;-68
2023/12/19 13:22:07;;;;;;;;;31.00;28.00;;;;;20.38;42.81;101865.28;146607;571;46012;-68
2023/12/19 13:25:33;;;;;;;;;27.25;26.00;;;;;17.14;44.91;101272.69;146608;664;47010;-67
2023/12/19 13:28:32;;;;;;;;;25.00;21.75;;;;;20.38;42.43;101861.78;146607;617;46012;-69
2023/12/19 13:31:27;;;;;;;;;26.50;23.25;;;;;20.36;41.62;101860.81;146606;565;46011;-69
2023/12/19 13:34:27;;;;;;;;;21.75;19.00;;;;;19.65;42.03;101750.78;146604;603;46016;-67
2023/12/19 13:37:22;;;;;;;;;23.25;22.25;;;;;20.11;42.49;101852.19;146606;601;46020;-68
2023/12/19 13:40:30;;;;;;;;;20.25;18.50;;;;;20.00;45.26;101845.69;146603;590;46016;-68
2023/12/19 13:43:51;;;;;;;;;22.50;19.50;;;;;17.66;45.48;101471.94;146608;664;46020;-69
2023/12/19 13:46:49;;;;;;;;;25.75;22.50;;;;;19.77;42.57;101845.00;146604;664;46017;-68
2023/12/19 13:49:41;;;;;;;;;22.50;22.00;;;;;19.71;43.92;101850.06;146610;597;46010;-68
2023/12/19 13:52:49;;;;;;;;;40.00;33.25;;;;;19.75;44.51;101844.03;146606;570;46016;-68
2023/12/19 13:55:57;;;;;;;;;34.75;31.00;;;;;19.78;44.79;101845.06;146608;636;46010;-68
2023/12/19 13:59:17;;;;;;;;;30.75;26.50;;;;;19.77;44.33;101842.38;146605;587;46016;-68
2023/12/19 14:02:19;;;;;;;;;22.50;21.25;;;;;19.68;45.89;101842.97;146605;614;46021;-67
2023/12/19 14:05:33;;;;;;;;;23.50;22.75;;;;;19.56;45.24;101842.53;146605;618;46012;-69
2023/12/19 14:08:52;;;;;;;;;30.25;28.25;;;;;15.91;46.35;101245.59;146609;680;46010;-69
2023/12/19 14:12:06;;;;;;;;;24.50;22.50;;;;;15.47;46.95;101217.72;146605;608;46016;-68
2023/12/19 14:15:13;;;;;;;;;26.00;25.00;;;;;18.84;44.20;101838.38;146607;611;46021;-68
2023/12/19 14:18:20;;;;;;;;;29.25;26.50;;;;;18.65;45.01;101833.28;146604;575;46016;-68
2023/12/19 14:21:29;;;;;;;;;29.25;27.25;;;;;18.52;46.19;101829.31;146608;582;46010;-68
2023/12/19 14:24:43;;;;;;;;;35.75;31.00;;;;;18.43;47.82;101821.97;146607;622;46014;-68
2023/12/19 14:28:06;;;;;;;;;46.75;37.25;;;;;14.86;48.98;101213.53;146606;636;46010;-67
2023/12/19 14:31:14;;;;;;;;;;;;;;;;;;;;;
2023/12/19 14:34:17;;;;;;;;;42.50;34.25;;;;;18.06;46.45;101819.72;146606;600;46020;-68
2023/12/19 14:37:28;;;;;;;;;48.75;39.25;;;;;17.75;48.19;101821.13;146606;647;46013;-68
2023/12/19 14:40:29;;;;;;;;;36.25;31.75;;;;;17.39;45.93;101825.78;146608;601;46010;-68
2023/12/19 14:43:26;;;;;;;;;32.75;28.00;;;;;16.95;46.49;101816.09;146604;581;46012;-67
2023/12/19 14:46:18;;;;;;;;;35.25;30.75;;;;;16.53;48.23;101821.19;146605;566;46021;-69
2023/12/19 14:49:20;;;;;;;;;46.00;38.00;;;;;12.22;50.49;101130.03;146605;603;46016;-67
2023/12/19 14:52:23;;;;;;;;;39.50;33.75;;;;;15.75;51.44;101817.59;146606;570;46020;-68
2023/12/19 14:55:22;;;;;;;;;35.75;32.00;;;;;15.36;52.82;101815.72;146607;625;45034;-67
2023/12/19 14:58:29;;;;;;;;;42.25;34.00;;;;;14.98;53.87;101814.72;146606;721;46010;-68
2023/12/19 15:01:32;;;;;;;;;30.00;28.00;;;;;14.56;55.64;101818.59;146607;581;46037;-69
2023/12/19 15:04:39;;;;;;;;;29.50;27.50;;;;;14.15;57.16;101812.06;146605;610;46020;-68
2023/12/19 15:07:45;;;;;;;;;28.50;27.25;;;;;13.77;58.51;101810.84;146603;613;46016;-68
2023/12/19 15:10:57;;;;;;;;;31.00;27.75;;;;;13.45;59.87;101803.81;146607;701;46010;-68